createdAt,value
2022-12-23T00:01:26.873Z,6.60
2022-12-23T00:04:00.137Z,6.60
2022-12-23T00:06:28.503Z,6.60
2022-12-23T00:08:59.359Z,6.60
2022-12-23T00:11:29.095Z,6.60
2022-12-23T00:14:20.471Z,6.60
2022-12-23T00:16:49.989Z,6.60
2022-12-23T00:19:19.575Z,6.60
2022-12-23T00:21:48.321Z,6.50
2022-12-23T00:24:16.824Z,6.50
2022-12-23T00:26:45.274Z,6.50
2022-12-23T00:29:13.450Z,6.50
2022-12-23T00:31:41.737Z,6.50
2022-12-23T00:34:11.826Z,6.40
2022-12-23T00:36:41.637Z,6.40
2022-12-23T00:39:45.224Z,6.40
2022-12-23T00:42:30.299Z,6.50
2022-12-23T00:45:15.674Z,6.40
2022-12-23T00:48:01.768Z,6.40
2022-12-23T00:50:30.906Z,6.40
2022-12-23T00:53:00.905Z,6.50
2022-12-23T00:55:29.110Z,6.40
2022-12-23T00:57:57.227Z,6.40
2022-12-23T01:00:45.522Z,6.40
2022-12-23T01:03:43.853Z,6.40
2022-12-23T01:06:14.397Z,6.50
2022-12-23T01:08:44.293Z,6.50
2022-12-23T01:11:13.339Z,6.60
2022-12-23T01:13:41.517Z,6.50
2022-12-23T01:16:17.090Z,6.50
2022-12-23T01:18:46.337Z,6.60
2022-12-23T01:21:14.880Z,6.50
2022-12-23T01:23:44.641Z,6.50
2022-12-23T01:26:13.384Z,6.50
2022-12-23T01:28:41.670Z,6.50
2022-12-23T01:31:11.387Z,6.50
2022-12-23T01:33:39.654Z,6.50
2022-12-23T01:36:09.289Z,6.40
2022-12-23T01:38:37.453Z,6.40
2022-12-23T01:41:09.317Z,6.40
2022-12-23T01:43:45.883Z,6.40
2022-12-23T01:46:14.336Z,6.40
2022-12-23T01:48:45.001Z,6.40
2022-12-23T01:51:17.014Z,6.40
2022-12-23T01:53:48.360Z,6.40
2022-12-23T01:56:20.929Z,6.40
2022-12-23T01:58:53.277Z,6.40
2022-12-23T02:01:39.441Z,6.40
2022-12-23T02:04:10.339Z,6.30
2022-12-23T02:07:13.481Z,6.40
2022-12-23T02:09:42.279Z,6.40
2022-12-23T02:12:41.861Z,6.40
2022-12-23T02:15:44.505Z,6.30
2022-12-23T02:18:26.851Z,6.30
2022-12-23T02:21:23.002Z,6.30
2022-12-23T02:24:25.334Z,6.30
2022-12-23T02:27:08.491Z,6.30
2022-12-23T02:30:15.433Z,6.30
2022-12-23T02:33:02.605Z,6.30
2022-12-23T02:35:36.909Z,6.30
2022-12-23T02:38:11.131Z,6.30
2022-12-23T02:40:45.261Z,6.30
2022-12-23T02:43:18.565Z,6.30
2022-12-23T02:45:50.537Z,6.30
2022-12-23T02:48:28.720Z,6.40
2022-12-23T02:50:58.799Z,6.40
2022-12-23T02:53:31.608Z,6.40
2022-12-23T02:56:00.504Z,6.30
2022-12-23T02:58:32.937Z,6.40
2022-12-23T03:01:03.302Z,6.40
2022-12-23T03:03:33.784Z,6.40
2022-12-23T03:06:03.381Z,6.40
2022-12-23T03:08:36.435Z,6.40
2022-12-23T03:11:08.772Z,6.40
2022-12-23T03:13:54.991Z,6.40
2022-12-23T03:16:28.280Z,6.40
2022-12-23T03:19:08.783Z,6.40
2022-12-23T03:21:42.322Z,6.40
2022-12-23T03:24:19.651Z,6.40
2022-12-23T03:26:53.072Z,6.40
2022-12-23T03:29:26.197Z,6.30
2022-12-23T03:31:56.230Z,6.40
2022-12-23T03:34:30.589Z,6.40
2022-12-23T03:37:01.729Z,6.40
2022-12-23T03:39:34.128Z,6.40
2022-12-23T03:42:09.877Z,6.40
2022-12-23T03:44:57.237Z,6.40
2022-12-23T03:47:34.249Z,6.40
2022-12-23T03:50:07.125Z,6.30
2022-12-23T03:52:40.151Z,6.30
2022-12-23T03:55:12.705Z,6.30
2022-12-23T03:57:45.813Z,6.30
2022-12-23T04:00:14.414Z,6.30
2022-12-23T04:02:51.470Z,6.30
2022-12-23T04:05:26.276Z,6.30
2022-12-23T04:07:59.681Z,6.30
2022-12-23T04:10:28.631Z,6.30
2022-12-23T04:12:56.731Z,6.30
2022-12-23T04:15:26.656Z,6.40
2022-12-23T04:17:57.614Z,6.30
2022-12-23T04:20:27.412Z,6.30
2022-12-23T04:22:55.496Z,6.30
2022-12-23T04:25:23.626Z,6.30
2022-12-23T04:27:51.737Z,6.30
2022-12-23T04:30:20.106Z,6.30
2022-12-23T04:32:48.195Z,6.30
2022-12-23T04:35:16.459Z,6.40
2022-12-23T04:37:48.339Z,6.30
2022-12-23T04:40:16.622Z,6.30
2022-12-23T04:42:44.792Z,6.30
2022-12-23T04:45:15.307Z,6.40
2022-12-23T04:47:43.478Z,6.30
2022-12-23T04:50:15.349Z,6.40
2022-12-23T04:52:43.634Z,6.40
2022-12-23T04:55:13.296Z,6.30
2022-12-23T04:57:41.424Z,6.40
2022-12-23T05:00:11.009Z,6.30
2022-12-23T05:02:39.337Z,6.40
2022-12-23T05:05:08.008Z,6.40
2022-12-23T05:07:36.105Z,6.40
2022-12-23T05:10:04.320Z,6.40
2022-12-23T05:12:33.843Z,6.40
2022-12-23T05:15:01.910Z,6.40
2022-12-23T05:17:30.051Z,6.40
2022-12-23T05:19:58.146Z,6.40
2022-12-23T05:22:26.417Z,6.40
2022-12-23T05:24:54.491Z,6.40
2022-12-23T05:27:22.624Z,6.50
2022-12-23T05:29:52.049Z,6.50
2022-12-23T05:32:20.185Z,6.50
2022-12-23T05:34:48.284Z,6.50
2022-12-23T05:37:16.306Z,6.60
2022-12-23T05:39:44.427Z,6.50
2022-12-23T05:42:12.524Z,6.50
2022-12-23T05:44:40.709Z,6.50
2022-12-23T05:47:10.138Z,6.50
2022-12-23T05:49:38.335Z,6.60
2022-12-23T05:52:06.701Z,6.50
2022-12-23T05:54:34.763Z,6.60
2022-12-23T05:57:03.061Z,6.60
2022-12-23T05:59:31.897Z,6.60
2022-12-23T06:02:00.398Z,6.70
2022-12-23T06:04:30.075Z,6.70
2022-12-23T06:06:58.176Z,6.60
2022-12-23T06:09:28.481Z,6.70
2022-12-23T06:11:56.554Z,6.70
2022-12-23T06:14:28.747Z,6.70
2022-12-23T06:16:57.416Z,6.70
2022-12-23T06:19:25.849Z,6.80
2022-12-23T06:21:55.319Z,6.70
2022-12-23T06:24:23.486Z,6.70
2022-12-23T06:26:56.700Z,6.70
2022-12-23T06:29:25.664Z,6.80
2022-12-23T06:31:53.933Z,6.80
2022-12-23T06:34:25.244Z,6.80
2022-12-23T06:36:53.332Z,6.80
2022-12-23T06:39:23.038Z,6.90
2022-12-23T06:41:51.418Z,6.90
2022-12-23T06:44:19.805Z,6.90
2022-12-23T06:46:49.900Z,6.90
2022-12-23T06:49:17.977Z,6.90
2022-12-23T06:51:46.105Z,7.00
2022-12-23T06:54:14.384Z,7.00
2022-12-23T06:56:43.814Z,7.00
2022-12-23T06:59:11.878Z,7.00
2022-12-23T07:01:40.618Z,7.00
2022-12-23T07:04:08.840Z,7.00
2022-12-23T07:06:39.528Z,7.10
2022-12-23T07:09:16.270Z,7.10
2022-12-23T07:11:47.418Z,7.10
2022-12-23T07:14:15.477Z,7.10
2022-12-23T07:16:43.568Z,7.10
2022-12-23T07:19:11.808Z,7.10
2022-12-23T07:21:39.874Z,7.10
2022-12-23T07:24:09.022Z,7.10
2022-12-23T07:26:37.239Z,7.10
2022-12-23T07:29:07.662Z,7.20
2022-12-23T07:31:40.603Z,7.20
2022-12-23T07:34:09.851Z,7.20
2022-12-23T07:36:38.195Z,7.20
2022-12-23T07:39:06.563Z,7.20
2022-12-23T07:41:34.867Z,7.20
2022-12-23T07:44:08.933Z,7.30
2022-12-23T07:46:37.528Z,7.30
2022-12-23T07:49:06.116Z,7.30
2022-12-23T07:51:34.509Z,7.30
2022-12-23T07:54:05.248Z,7.30
2022-12-23T07:56:33.325Z,7.30
2022-12-23T07:59:01.758Z,7.30
2022-12-23T08:01:31.578Z,7.30
2022-12-23T08:03:59.797Z,7.30
2022-12-23T08:06:28.336Z,7.30
2022-12-23T08:08:56.421Z,7.30
2022-12-23T08:11:24.733Z,7.30
2022-12-23T08:13:55.504Z,7.30
2022-12-23T08:16:23.678Z,7.30
2022-12-23T08:18:53.315Z,7.20
2022-12-23T08:21:23.873Z,7.30
2022-12-23T08:23:53.025Z,7.30
2022-12-23T08:26:23.126Z,7.30
2022-12-23T08:28:53.661Z,7.30
2022-12-23T08:31:24.937Z,7.30
2022-12-23T08:33:56.592Z,7.30
2022-12-23T08:36:26.393Z,7.30
2022-12-23T08:38:56.838Z,7.30
2022-12-23T08:41:27.526Z,7.30
2022-12-23T08:43:56.206Z,7.30
2022-12-23T08:46:26.063Z,7.30
2022-12-23T08:48:55.917Z,7.40
2022-12-23T08:51:25.713Z,7.30
2022-12-23T08:54:00.185Z,7.30
2022-12-23T08:56:32.075Z,7.30
2022-12-23T08:59:00.409Z,7.30
2022-12-23T09:01:30.414Z,7.30
2022-12-23T09:04:02.612Z,7.30
2022-12-23T09:06:33.991Z,7.30
2022-12-23T09:09:02.233Z,7.30
2022-12-23T09:11:30.747Z,7.40
2022-12-23T09:14:01.308Z,7.40
2022-12-23T09:16:30.533Z,7.50
2022-12-23T09:19:00.216Z,7.50
2022-12-23T09:21:30.909Z,7.60
2022-12-23T09:23:59.205Z,7.60
2022-12-23T09:26:29.230Z,7.60
2022-12-23T09:28:58.186Z,7.70
2022-12-23T09:31:32.639Z,7.70
2022-12-23T09:34:06.909Z,7.70
2022-12-23T09:36:35.432Z,7.70
2022-12-23T09:39:03.605Z,7.70
2022-12-23T09:42:04.502Z,7.70
2022-12-23T09:44:59.630Z,7.80
2022-12-23T09:47:31.099Z,7.70
2022-12-23T09:50:04.164Z,7.70
2022-12-23T09:52:41.517Z,7.70
2022-12-23T09:55:12.304Z,7.80
2022-12-23T09:57:49.370Z,7.80
2022-12-23T10:00:20.077Z,7.80
2022-12-23T10:03:06.050Z,7.90
2022-12-23T10:05:47.361Z,7.80
2022-12-23T10:08:20.705Z,7.90
2022-12-23T10:10:52.490Z,7.90
2022-12-23T10:13:27.503Z,7.80
2022-12-23T10:15:59.539Z,7.80
2022-12-23T10:18:39.236Z,7.80
2022-12-23T10:21:14.492Z,7.80
2022-12-23T10:23:47.478Z,7.80
2022-12-23T10:26:23.089Z,7.70
2022-12-23T10:28:54.905Z,7.80
2022-12-23T10:31:40.777Z,7.80
2022-12-23T10:34:16.263Z,7.90
2022-12-23T10:36:53.939Z,8.00
2022-12-23T10:39:33.614Z,8.00
2022-12-23T10:42:13.589Z,8.10
2022-12-23T10:45:14.262Z,8.20
2022-12-23T10:47:52.904Z,8.30
2022-12-23T10:50:46.063Z,8.50
2022-12-23T10:53:23.032Z,8.50
2022-12-23T10:55:51.999Z,8.30
2022-12-23T10:58:20.855Z,8.30
2022-12-23T11:00:54.468Z,8.20
2022-12-23T11:03:28.593Z,8.20
2022-12-23T11:05:58.798Z,8.20
2022-12-23T11:08:32.088Z,8.20
2022-12-23T11:11:02.216Z,8.30
2022-12-23T11:13:36.803Z,8.40
2022-12-23T11:16:22.167Z,8.50
2022-12-23T11:18:56.060Z,8.60
2022-12-23T11:21:27.609Z,8.50
2022-12-23T11:24:17.711Z,8.50
2022-12-23T11:26:47.212Z,8.40
2022-12-23T11:29:23.739Z,8.30
2022-12-23T11:31:52.641Z,8.30
2022-12-23T11:34:23.905Z,8.30
2022-12-23T11:37:03.298Z,8.30
2022-12-23T11:39:38.592Z,8.30
2022-12-23T11:42:13.043Z,8.20
2022-12-23T11:44:44.540Z,8.20
2022-12-23T11:47:30.764Z,8.20
2022-12-23T11:50:00.549Z,8.20
2022-12-23T11:52:30.381Z,8.20
2022-12-23T11:55:01.576Z,8.20
2022-12-23T11:57:38.424Z,8.10
2022-12-23T12:00:08.783Z,8.10
2022-12-23T12:02:39.629Z,8.00
2022-12-23T12:05:20.786Z,8.00
2022-12-23T12:07:50.351Z,8.00
2022-12-23T12:10:22.790Z,8.10
2022-12-23T12:12:58.571Z,8.10
2022-12-23T12:15:37.818Z,8.10
2022-12-23T12:18:10.808Z,8.10
2022-12-23T12:20:42.950Z,8.10
2022-12-23T12:23:15.729Z,8.10
2022-12-23T12:25:47.228Z,8.10
2022-12-23T12:28:20.331Z,8.10
2022-12-23T12:30:52.009Z,8.20
2022-12-23T12:33:24.964Z,8.20
2022-12-23T12:36:04.967Z,8.20
2022-12-23T12:38:34.537Z,8.20
2022-12-23T12:41:09.857Z,8.20
2022-12-23T12:43:41.843Z,8.30
2022-12-23T12:46:25.809Z,8.30
2022-12-23T12:49:00.302Z,8.40
2022-12-23T12:51:33.069Z,8.50
2022-12-23T12:54:05.943Z,8.50
2022-12-23T12:56:42.471Z,8.60
2022-12-23T12:59:17.944Z,8.50
2022-12-23T13:02:00.508Z,8.50
2022-12-23T13:04:50.274Z,8.50
2022-12-23T13:07:25.958Z,8.50
2022-12-23T13:10:02.370Z,8.50
2022-12-23T13:12:45.330Z,8.50
2022-12-23T13:15:18.648Z,8.50
2022-12-23T13:18:00.389Z,8.60
2022-12-23T13:20:37.501Z,8.40
2022-12-23T13:23:41.690Z,8.20
2022-12-23T13:26:10.661Z,8.10
2022-12-23T13:28:50.944Z,8.00
2022-12-23T13:31:33.546Z,7.90
2022-12-23T13:34:11.572Z,7.90
2022-12-23T13:36:49.060Z,8.00
2022-12-23T13:39:33.106Z,8.00
2022-12-23T13:42:06.108Z,8.00
2022-12-23T13:44:36.340Z,8.00
2022-12-23T13:47:15.379Z,7.80
2022-12-23T13:50:00.317Z,7.70
2022-12-23T13:52:39.484Z,7.60
2022-12-23T13:55:16.840Z,7.60
2022-12-23T13:57:56.612Z,7.60
2022-12-23T14:00:31.852Z,7.70
2022-12-23T14:03:25.068Z,7.70
2022-12-23T14:05:54.395Z,7.70
2022-12-23T14:08:30.723Z,7.70
2022-12-23T14:11:01.619Z,7.70
2022-12-23T14:13:35.150Z,7.60
2022-12-23T14:16:31.825Z,7.60
2022-12-23T14:19:20.596Z,7.50
2022-12-23T14:21:59.211Z,7.50
2022-12-23T14:25:00.721Z,7.50
2022-12-23T14:27:47.728Z,7.40
2022-12-23T14:30:19.356Z,7.40
2022-12-23T14:32:51.610Z,7.40
2022-12-23T14:35:27.140Z,7.50
2022-12-23T14:38:23.343Z,7.50
2022-12-23T14:41:01.134Z,7.50
2022-12-23T14:43:51.319Z,7.60
2022-12-23T14:46:58.742Z,7.60
2022-12-23T14:49:46.405Z,7.60
2022-12-23T14:52:54.232Z,7.60
2022-12-23T14:55:44.322Z,7.50
2022-12-23T14:58:49.841Z,7.50
2022-12-23T15:01:20.948Z,7.50
2022-12-23T15:03:59.219Z,7.50
2022-12-23T15:06:36.397Z,7.50
2022-12-23T15:09:06.078Z,7.50
2022-12-23T15:11:36.039Z,7.50
2022-12-23T15:14:08.906Z,7.50
2022-12-23T15:16:38.735Z,7.50
2022-12-23T15:19:19.446Z,7.50
2022-12-23T15:21:58.206Z,7.40
2022-12-23T15:24:31.495Z,7.40
2022-12-23T15:29:51.179Z,7.30
2022-12-23T15:32:20.673Z,7.20
2022-12-23T15:34:50.407Z,7.10
2022-12-23T15:37:26.704Z,7.10
2022-12-23T15:40:04.529Z,7.10
2022-12-23T15:42:47.216Z,7.10
2022-12-23T15:45:35.581Z,7.10
2022-12-23T15:48:05.224Z,7.10
2022-12-23T15:50:40.420Z,7.00
2022-12-23T15:53:18.431Z,7.00
2022-12-23T15:55:49.950Z,6.90
2022-12-23T15:58:23.474Z,6.80
2022-12-23T16:00:54.664Z,6.80
2022-12-23T16:03:28.216Z,6.90
2022-12-23T16:06:06.613Z,6.90
2022-12-23T16:08:36.448Z,6.90
2022-12-23T16:11:13.262Z,6.90
2022-12-23T16:13:47.351Z,7.00
2022-12-23T16:16:39.268Z,7.10
2022-12-23T16:19:08.107Z,7.10
2022-12-23T16:21:37.732Z,7.20
2022-12-23T16:24:10.466Z,7.20
2022-12-23T16:26:43.397Z,7.20
2022-12-23T16:29:12.489Z,7.30
2022-12-23T16:31:48.261Z,7.20
2022-12-23T16:34:20.450Z,7.20
2022-12-23T16:36:48.705Z,7.20
2022-12-23T16:39:22.718Z,7.30
2022-12-23T16:41:50.982Z,7.30
2022-12-23T16:44:19.138Z,7.30
2022-12-23T16:46:50.590Z,7.30
2022-12-23T16:49:20.363Z,7.30
2022-12-23T16:51:49.039Z,7.30
2022-12-23T16:54:20.319Z,7.30
2022-12-23T16:56:48.555Z,7.20
2022-12-23T16:59:16.786Z,7.30
2022-12-23T17:01:47.417Z,7.20
2022-12-23T17:04:16.333Z,7.20
2022-12-23T17:06:46.503Z,7.30
2022-12-23T17:09:14.954Z,7.20
2022-12-23T17:11:47.327Z,7.20
2022-12-23T17:14:18.136Z,7.20
2022-12-23T17:16:47.621Z,7.20
2022-12-23T17:19:18.223Z,7.20
2022-12-23T17:21:54.105Z,7.20
2022-12-23T17:24:24.578Z,7.30
2022-12-23T17:26:55.294Z,7.30
2022-12-23T17:29:23.594Z,7.20
2022-12-23T17:31:59.119Z,7.20
2022-12-23T17:34:27.789Z,7.20
2022-12-23T17:36:56.040Z,7.20
2022-12-23T17:39:24.173Z,7.20
2022-12-23T17:41:53.760Z,7.20
2022-12-23T17:44:21.923Z,7.20
2022-12-23T17:46:50.124Z,7.20
2022-12-23T17:49:18.281Z,7.20
2022-12-23T17:51:46.453Z,7.10
2022-12-23T17:54:23.154Z,7.10
2022-12-23T17:56:51.902Z,7.10
2022-12-23T17:59:22.595Z,7.10
2022-12-23T18:01:50.988Z,7.10
2022-12-23T18:04:19.253Z,7.10
2022-12-23T18:06:47.423Z,7.00
2022-12-23T18:09:16.658Z,7.00
2022-12-23T18:11:47.244Z,7.00
2022-12-23T18:14:18.189Z,7.00
2022-12-23T18:16:47.844Z,7.00
2022-12-23T18:19:18.809Z,6.90
2022-12-23T18:21:49.940Z,7.00
2022-12-23T18:24:18.950Z,6.90
2022-12-23T18:26:47.572Z,6.80
2022-12-23T18:29:15.884Z,6.80
2022-12-23T18:31:52.079Z,6.80
2022-12-23T18:34:21.902Z,6.80
2022-12-23T18:36:51.543Z,6.80
2022-12-23T18:39:20.324Z,6.80
2022-12-23T18:41:48.508Z,6.70
2022-12-23T18:44:19.916Z,6.70
2022-12-23T18:46:48.486Z,6.70
2022-12-23T18:49:18.138Z,6.70
2022-12-23T18:51:46.802Z,6.70
2022-12-23T18:54:15.726Z,6.80
2022-12-23T18:56:44.434Z,6.80
2022-12-23T18:59:16.917Z,6.80
2022-12-23T19:01:45.228Z,6.80
2022-12-23T19:04:13.578Z,6.80
2022-12-23T19:06:43.190Z,6.80
2022-12-23T19:09:18.043Z,6.80
2022-12-23T19:11:49.071Z,6.80
2022-12-23T19:14:17.363Z,6.70
2022-12-23T19:16:51.168Z,6.70
2022-12-23T19:19:20.577Z,6.60
2022-12-23T19:21:50.180Z,6.60
2022-12-23T19:24:18.465Z,6.60
2022-12-23T19:26:46.629Z,6.60
2022-12-23T19:29:14.801Z,6.60
2022-12-23T19:31:43.009Z,6.60
2022-12-23T19:34:15.474Z,6.60
2022-12-23T19:36:44.226Z,6.60
2022-12-23T19:39:16.558Z,6.60
2022-12-23T19:41:45.070Z,6.50
2022-12-23T19:44:13.255Z,6.50
2022-12-23T19:46:41.890Z,6.50
2022-12-23T19:49:15.747Z,6.50
2022-12-23T19:51:47.717Z,6.50
2022-12-23T19:54:17.529Z,6.40
2022-12-23T19:56:46.258Z,6.50
2022-12-23T19:59:14.600Z,6.40
2022-12-23T20:01:42.817Z,6.40
2022-12-23T20:04:11.455Z,6.40
2022-12-23T20:06:41.240Z,6.40
2022-12-23T20:09:13.774Z,6.40
2022-12-23T20:11:45.093Z,6.40
2022-12-23T20:14:19.115Z,6.30
2022-12-23T20:16:50.057Z,6.30
2022-12-23T20:19:18.704Z,6.20
2022-12-23T20:21:46.892Z,6.20
2022-12-23T20:24:16.309Z,6.20
2022-12-23T20:26:45.940Z,6.20
2022-12-23T20:29:14.261Z,6.10
2022-12-23T20:31:42.417Z,6.20
2022-12-23T20:34:16.638Z,6.10
2022-12-23T20:36:44.959Z,6.10
2022-12-23T20:39:13.548Z,6.10
2022-12-23T20:41:41.795Z,6.20
2022-12-23T20:47:00.148Z,6.20
2022-12-23T20:49:28.427Z,6.20
2022-12-23T20:51:58.418Z,6.10
2022-12-23T20:54:32.787Z,6.20
2022-12-23T20:57:02.163Z,6.20
2022-12-23T20:59:31.696Z,6.10
2022-12-23T21:02:00.021Z,6.20
2022-12-23T21:04:28.428Z,6.10
2022-12-23T21:06:56.589Z,6.10
2022-12-23T21:09:24.957Z,6.10
2022-12-23T21:11:53.141Z,6.10
2022-12-23T21:14:21.286Z,6.10
2022-12-23T21:16:50.978Z,6.10
2022-12-23T21:19:20.699Z,6.10
2022-12-23T21:21:49.665Z,6.00
2022-12-23T21:24:18.377Z,6.00
2022-12-23T21:26:55.498Z,6.00
2022-12-23T21:29:24.949Z,6.00
2022-12-23T21:31:55.108Z,6.00
2022-12-23T21:34:23.716Z,6.00
2022-12-23T21:36:51.952Z,5.90
2022-12-23T21:39:20.125Z,5.90
2022-12-23T21:41:50.987Z,5.90
2022-12-23T21:44:19.172Z,5.90
2022-12-23T21:46:47.533Z,5.90
2022-12-23T21:49:17.067Z,5.90
2022-12-23T21:51:45.158Z,5.90
2022-12-23T21:54:13.995Z,5.80
2022-12-23T21:56:43.121Z,5.80
2022-12-23T21:59:14.091Z,5.80
2022-12-23T22:01:42.828Z,5.80
2022-12-23T22:04:11.226Z,5.70
2022-12-23T22:06:44.543Z,5.80
2022-12-23T22:09:14.929Z,5.80
2022-12-23T22:11:43.441Z,5.70
2022-12-23T22:14:13.310Z,5.80
2022-12-23T22:16:41.496Z,5.70
2022-12-23T22:19:10.446Z,5.70
2022-12-23T22:21:40.187Z,5.70
2022-12-23T22:24:08.693Z,5.70
2022-12-23T22:26:37.381Z,5.60
2022-12-23T22:29:06.998Z,5.60
2022-12-23T22:31:38.549Z,5.70
2022-12-23T22:34:07.603Z,5.60
2022-12-23T22:36:35.785Z,5.60
2022-12-23T22:39:07.557Z,5.60
2022-12-23T22:41:38.704Z,5.60
2022-12-23T22:44:07.352Z,5.60
2022-12-23T22:46:35.603Z,5.60
2022-12-23T22:49:03.849Z,5.60
2022-12-23T22:51:32.871Z,5.60
2022-12-23T22:54:03.780Z,5.60
2022-12-23T22:56:33.338Z,5.60
2022-12-23T22:59:01.454Z,5.60
2022-12-23T23:01:32.010Z,5.50
2022-12-23T23:04:04.518Z,5.60
2022-12-23T23:06:34.198Z,5.60
2022-12-23T23:09:02.541Z,5.60
2022-12-23T23:11:31.056Z,5.60
2022-12-23T23:14:00.543Z,5.60
2022-12-23T23:16:28.892Z,5.60
2022-12-23T23:18:58.639Z,5.60
2022-12-23T23:21:27.277Z,5.50
2022-12-23T23:23:55.901Z,5.50
2022-12-23T23:26:26.737Z,5.60
2022-12-23T23:28:55.705Z,5.50
2022-12-23T23:31:43.826Z,5.50
2022-12-23T23:34:12.800Z,5.50
2022-12-23T23:36:41.474Z,5.50
2022-12-23T23:39:10.132Z,5.50
2022-12-23T23:41:38.342Z,5.40
2022-12-23T23:44:06.637Z,5.40
2022-12-23T23:46:36.185Z,5.40
2022-12-23T23:49:04.861Z,5.40
2022-12-23T23:51:32.952Z,5.40
2022-12-23T23:54:01.158Z,5.40
2022-12-23T23:56:34.017Z,5.30
2022-12-23T23:59:05.872Z,5.40
